Time;durP1;ratioP1;P1;durP2;ratioP2;P2;SDS_P1;SDS_P2;PMS_P1;PMS_P2;Temp;Humidity;BMP_temperature;BMP_pressure;BME280_temperature;BME280_humidity;BME280_pressure;Samples;Min_cycle;Max_cycle;Signal;HPM_P1;HPM_P2
2022/07/30 00:01:33;;;;;;;2.60;1.45;;;22.60;50.50;;;;;;4938098;28;20038;-71
2022/07/30 00:03:58;;;;;;;4.18;1.63;;;22.50;49.90;;;;;;4940879;29;20042;-71
2022/07/30 00:06:24;;;;;;;3.28;1.23;;;22.50;50.00;;;;;;4943729;29;20028;-71
2022/07/30 00:08:50;;;;;;;3.78;1.58;;;22.50;50.20;;;;;;4943346;28;20118;-70
2022/07/30 00:11:15;;;;;;;5.50;1.42;;;22.40;50.30;;;;;;4941113;28;20035;-70
2022/07/30 00:13:41;;;;;;;2.40;1.25;;;22.50;50.60;;;;;;4942559;28;20043;-71
2022/07/30 00:16:07;;;;;;;3.53;1.50;;;22.50;50.60;;;;;;4937889;29;20196;-70
2022/07/30 00:18:33;;;;;;;2.28;1.63;;;22.40;50.30;;;;;;4939338;28;20447;-71
2022/07/30 00:20:59;;;;;;;3.78;1.55;;;22.40;50.30;;;;;;4935112;28;20043;-71
2022/07/30 00:23:25;;;;;;;3.30;1.52;;;22.40;50.60;;;;;;4935812;29;20038;-70
2022/07/30 00:25:50;;;;;;;3.10;1.70;;;22.40;50.60;;;;;;4943724;29;20031;-70
2022/07/30 00:28:16;;;;;;;3.58;1.40;;;22.40;50.80;;;;;;4941530;29;20137;-71
2022/07/30 00:30:42;;;;;;;3.25;1.33;;;22.40;50.50;;;;;;4944236;28;21381;-70
2022/07/30 00:33:08;;;;;;;2.97;1.30;;;22.40;51.00;;;;;;4938235;29;20039;-71
2022/07/30 00:35:34;;;;;;;1.55;1.20;;;22.40;51.20;;;;;;4939931;28;20023;-70
2022/07/30 00:38:00;;;;;;;5.10;1.45;;;22.30;51.40;;;;;;4936376;29;20040;-70
2022/07/30 00:40:26;;;;;;;2.38;1.48;;;22.30;51.00;;;;;;4936194;28;20027;-71
2022/07/30 00:42:51;;;;;;;3.03;1.45;;;22.30;50.80;;;;;;4935778;28;20549;-70
2022/07/30 00:45:17;;;;;;;2.95;1.45;;;22.40;51.00;;;;;;4942610;28;20479;-70
2022/07/30 00:47:43;;;;;;;4.10;1.83;;;22.40;51.00;;;;;;4941888;28;20090;-70
2022/07/30 00:50:10;;;;;;;2.92;1.52;;;22.30;50.70;;;;;;4938218;28;20028;-71
2022/07/30 00:52:37;;;;;;;5.78;1.58;;;22.30;50.90;;;;;;4940378;28;20669;-71
2022/07/30 00:55:04;;;;;;;4.93;1.60;;;22.30;50.80;;;;;;4938513;29;20041;-70
2022/07/30 00:57:30;;;;;;;2.42;1.40;;;22.30;51.00;;;;;;4939599;29;20073;-71
2022/07/30 00:59:57;;;;;;;3.88;1.55;;;22.30;51.30;;;;;;4935749;28;20090;-70
2022/07/30 01:02:22;;;;;;;4.55;1.73;;;22.20;51.40;;;;;;4941448;28;20359;-70
2022/07/30 01:04:48;;;;;;;1.88;1.35;;;22.20;51.80;;;;;;4942401;29;20034;-71
2022/07/30 01:07:14;;;;;;;2.10;1.17;;;22.10;51.60;;;;;;4941181;29;20039;-70
2022/07/30 01:09:40;;;;;;;4.35;1.80;;;22.10;51.90;;;;;;4940500;28;20027;-71
2022/07/30 01:12:08;;;;;;;5.80;1.42;;;22.10;51.90;;;;;;4939222;28;20110;-70
2022/07/30 01:14:35;;;;;;;4.82;1.10;;;22.10;52.20;;;;;;4936918;29;20039;-70
2022/07/30 01:17:02;;;;;;;5.85;1.60;;;22.00;51.70;;;;;;4934424;28;20532;-70
2022/07/30 01:19:47;;;;;;;3.63;1.52;;;22.00;52.00;;;;;;4934251;29;20535;-71
2022/07/30 01:22:25;;;;;;;4.10;1.40;;;22.00;52.30;;;;;;4952564;28;20816;-70
2022/07/30 01:25:14;;;;;;;1.80;1.30;;;22.00;52.20;;;;;;4956287;28;20054;-70
2022/07/30 01:27:49;;;;;;;1.80;1.20;;;22.00;52.30;;;;;;4940135;28;20118;-70
2022/07/30 01:30:19;;;;;;;2.22;1.10;;;21.90;52.60;;;;;;4938253;28;20051;-71
2022/07/30 01:32:46;;;;;;;4.97;1.55;;;21.90;53.00;;;;;;4938397;29;20046;-70
2022/07/30 01:35:14;;;;;;;2.80;1.50;;;21.90;53.20;;;;;;4932929;29;20042;-70
2022/07/30 01:37:43;;;;;;;5.93;1.80;;;21.90;53.20;;;;;;4940938;29;20031;-70
2022/07/30 01:40:10;;;;;;;3.90;1.42;;;21.90;53.00;;;;;;4934258;29;20818;-70
2022/07/30 01:42:38;;;;;;;7.55;2.00;;;21.80;53.20;;;;;;4939887;28;20320;-70
2022/07/30 01:45:05;;;;;;;4.30;1.23;;;21.80;53.00;;;;;;4939308;29;20031;-71
2022/07/30 01:47:34;;;;;;;2.05;1.42;;;21.80;53.30;;;;;;4936115;29;20455;-70
2022/07/30 01:50:03;;;;;;;4.03;1.63;;;21.80;53.60;;;;;;4939574;29;20669;-70
2022/07/30 01:52:31;;;;;;;1.60;1.50;;;21.80;53.50;;;;;;4941074;28;20102;-70
2022/07/30 01:54:59;;;;;;;2.08;1.35;;;21.80;53.70;;;;;;4934373;28;20816;-70
2022/07/30 01:57:25;;;;;;;2.65;1.40;;;21.80;53.60;;;;;;4941158;29;20042;-70
2022/07/30 01:59:57;;;;;;;3.60;1.60;;;21.80;53.10;;;;;;4941106;29;20838;-70
2022/07/30 02:02:24;;;;;;;2.53;1.50;;;21.70;53.40;;;;;;4943580;28;20722;-70
2022/07/30 02:04:50;;;;;;;4.32;1.58;;;21.70;53.40;;;;;;4944323;28;20027;-70
2022/07/30 02:07:29;;;;;;;2.50;1.20;;;21.70;53.90;;;;;;4943114;29;20027;-70
2022/07/30 02:10:02;;;;;;;2.28;1.25;;;21.60;54.20;;;;;;4940316;29;20055;-70
2022/07/30 02:12:37;;;;;;;2.40;1.40;;;21.60;54.20;;;;;;4937543;29;20042;-70
2022/07/30 02:15:13;;;;;;;4.50;1.45;;;21.70;54.70;;;;;;4938730;29;20524;-71
2022/07/30 02:18:05;;;;;;;4.63;1.70;;;21.60;54.70;;;;;;4940704;29;20566;-70
2022/07/30 02:20:33;;;;;;;1.83;1.42;;;21.70;54.90;;;;;;4942194;28;20039;-70
2022/07/30 02:23:09;;;;;;;3.33;1.50;;;21.60;55.20;;;;;;4956913;28;20031;-70
2022/07/30 02:25:40;;;;;;;3.42;1.40;;;21.60;55.30;;;;;;4942666;28;20042;-70
2022/07/30 02:28:10;;;;;;;1.45;1.10;;;21.70;55.30;;;;;;4939162;28;20044;-70
2022/07/30 02:30:41;;;;;;;2.35;1.58;;;21.60;55.20;;;;;;4939627;28;20665;-70
2022/07/30 02:33:11;;;;;;;3.08;1.20;;;21.50;55.70;;;;;;4935059;29;20039;-70
2022/07/30 02:35:37;;;;;;;1.80;1.60;;;21.50;55.30;;;;;;4938839;29;20034;-70
2022/07/30 02:38:06;;;;;;;3.72;1.60;;;21.50;55.30;;;;;;4944200;29;20226;-71
2022/07/30 02:40:32;;;;;;;2.72;1.40;;;21.50;55.70;;;;;;4943777;28;20055;-71
2022/07/30 02:43:00;;;;;;;3.47;1.42;;;21.50;55.10;;;;;;4941094;29;20038;-70
2022/07/30 02:45:29;;;;;;;2.53;1.30;;;21.40;55.30;;;;;;4943656;29;20055;-70
2022/07/30 02:48:06;;;;;;;3.25;1.30;;;21.40;55.70;;;;;;4942952;29;20038;-71
2022/07/30 02:50:34;;;;;;;3.45;1.27;;;21.40;55.90;;;;;;4938153;28;20027;-70
2022/07/30 02:53:01;;;;;;;3.72;1.67;;;21.40;55.70;;;;;;4937674;29;20079;-71
2022/07/30 02:55:30;;;;;;;2.08;1.40;;;21.40;55.70;;;;;;4939797;29;20129;-70
2022/07/30 02:57:57;;;;;;;2.28;1.30;;;21.30;55.90;;;;;;4943459;29;20094;-70
2022/07/30 03:00:27;;;;;;;3.22;1.63;;;21.30;56.20;;;;;;4943024;29;20046;-70
2022/07/30 03:02:54;;;;;;;2.42;1.20;;;21.30;56.40;;;;;;4940312;29;20042;-70
2022/07/30 03:05:21;;;;;;;1.92;1.30;;;21.30;56.40;;;;;;4940098;29;20491;-71
2022/07/30 03:07:47;;;;;;;2.10;1.50;;;21.30;56.30;;;;;;4943957;29;20023;-71
2022/07/30 03:10:14;;;;;;;2.95;1.58;;;21.20;56.10;;;;;;4944146;29;20138;-71
2022/07/30 03:12:43;;;;;;;1.50;1.33;;;21.20;56.60;;;;;;4936329;28;20031;-70
2022/07/30 03:15:09;;;;;;;1.50;1.33;;;21.20;56.70;;;;;;4943975;29;20089;-71
2022/07/30 03:17:43;;;;;;;1.40;1.30;;;21.20;57.00;;;;;;4944389;29;20023;-70
2022/07/30 03:20:13;;;;;;;2.88;1.60;;;21.10;57.20;;;;;;4941318;29;20046;-70
2022/07/30 03:22:42;;;;;;;3.47;1.60;;;21.10;57.50;;;;;;4939358;28;20046;-70
2022/07/30 03:25:11;;;;;;;3.10;1.70;;;21.10;56.90;;;;;;4940899;29;20098;-71
2022/07/30 03:27:38;;;;;;;2.42;1.60;;;21.10;56.90;;;;;;4937046;29;21021;-70
2022/07/30 03:30:05;;;;;;;4.05;1.67;;;21.20;57.00;;;;;;4933382;29;20030;-70
2022/07/30 03:32:33;;;;;;;6.30;1.58;;;21.20;56.80;;;;;;4942871;28;20835;-70
2022/07/30 03:35:00;;;;;;;2.00;1.50;;;21.20;56.70;;;;;;4943089;29;20611;-71
2022/07/30 03:37:26;;;;;;;2.38;1.48;;;21.10;56.20;;;;;;4940893;28;20043;-70
2022/07/30 03:39:53;;;;;;;2.10;1.25;;;21.20;56.30;;;;;;4940660;29;20023;-70
2022/07/30 03:42:21;;;;;;;2.17;1.33;;;21.10;56.60;;;;;;4942198;28;20035;-70
2022/07/30 03:44:48;;;;;;;5.38;1.55;;;21.10;56.80;;;;;;4943664;29;20491;-70
2022/07/30 03:47:14;;;;;;;1.90;1.40;;;21.20;57.30;;;;;;4935973;29;20038;-70
2022/07/30 03:49:45;;;;;;;2.00;1.40;;;21.10;57.10;;;;;;4943426;29;20407;-70
2022/07/30 03:52:12;;;;;;;2.53;1.30;;;21.10;57.30;;;;;;4943353;28;20039;-71
2022/07/30 03:54:38;;;;;;;3.83;1.70;;;21.10;57.80;;;;;;4942963;29;20034;-70
2022/07/30 03:57:30;;;;;;;3.35;1.50;;;21.10;58.10;;;;;;4927270;29;20051;-70
2022/07/30 03:59:57;;;;;;;4.75;1.52;;;21.00;57.90;;;;;;4943170;29;20143;-70
2022/07/30 04:02:23;;;;;;;1.92;1.60;;;21.00;58.60;;;;;;4942285;28;20436;-70
2022/07/30 04:05:14;;;;;;;2.15;1.20;;;21.00;58.10;;;;;;4915754;29;20032;-70
2022/07/30 04:07:40;;;;;;;2.55;1.30;;;21.00;58.40;;;;;;4932825;29;20457;-70
2022/07/30 04:10:06;;;;;;;3.13;1.58;;;21.00;58.20;;;;;;4936048;28;20038;-70
2022/07/30 04:12:51;;;;;;;3.17;1.65;;;20.90;58.20;;;;;;4943451;29;20125;-70
2022/07/30 04:15:17;;;;;;;3.17;1.60;;;20.90;58.30;;;;;;4942525;29;20403;-70
2022/07/30 04:17:47;;;;;;;3.55;2.10;;;20.90;58.70;;;;;;4940224;28;20039;-70
2022/07/30 04:20:22;;;;;;;2.60;1.67;;;20.90;58.90;;;;;;4941513;29;20048;-70
2022/07/30 04:22:49;;;;;;;3.20;1.50;;;20.90;58.80;;;;;;4937783;29;20046;-71
2022/07/30 04:25:18;;;;;;;1.55;1.45;;;20.90;58.30;;;;;;4935258;28;20027;-70
2022/07/30 04:27:44;;;;;;;2.67;1.40;;;20.90;58.60;;;;;;4937119;28;20023;-70
2022/07/30 04:30:11;;;;;;;1.70;1.38;;;20.90;59.10;;;;;;4943384;28;20037;-70
2022/07/30 04:32:38;;;;;;;3.42;1.40;;;20.90;58.70;;;;;;4959407;28;20038;-70
2022/07/30 04:35:07;;;;;;;4.95;1.60;;;20.90;58.60;;;;;;4940837;29;20054;-70
2022/07/30 04:38:06;;;;;;;2.22;1.60;;;20.90;58.70;;;;;;4932982;29;20083;-70
2022/07/30 04:40:32;;;;;;;6.18;1.75;;;20.90;58.80;;;;;;4937925;28;20032;-70
2022/07/30 04:42:58;;;;;;;2.75;1.27;;;20.90;59.10;;;;;;4936314;28;20082;-70
2022/07/30 04:45:24;;;;;;;6.85;1.77;;;20.80;59.30;;;;;;4941852;29;20063;-70
2022/07/30 04:47:55;;;;;;;1.90;1.35;;;20.80;59.70;;;;;;4942832;29;20035;-71
2022/07/30 04:50:32;;;;;;;5.72;1.77;;;20.80;59.20;;;;;;4939082;28;20031;-70
2022/07/30 04:52:59;;;;;;;3.35;1.60;;;20.90;59.40;;;;;;4941706;29;20031;-70
2022/07/30 04:55:30;;;;;;;1.73;1.35;;;20.90;59.60;;;;;;4942166;28;20791;-70
2022/07/30 04:57:58;;;;;;;2.42;1.40;;;20.90;59.90;;;;;;4953461;28;20463;-70
2022/07/30 05:00:27;;;;;;;2.17;1.45;;;20.90;59.90;;;;;;4941791;28;20090;-70
2022/07/30 05:02:55;;;;;;;2.78;1.58;;;20.90;59.60;;;;;;4940408;29;20038;-70
2022/07/30 05:05:22;;;;;;;2.25;1.25;;;20.90;59.90;;;;;;4935714;29;20143;-70
2022/07/30 05:07:48;;;;;;;2.33;1.83;;;20.90;59.90;;;;;;4942151;29;20190;-71
2022/07/30 05:10:14;;;;;;;3.53;1.73;;;20.90;60.00;;;;;;4941880;29;20134;-70
2022/07/30 05:12:41;;;;;;;4.82;1.38;;;20.90;60.00;;;;;;4943235;28;20066;-70
2022/07/30 05:15:08;;;;;;;1.50;1.40;;;20.80;59.30;;;;;;4938612;28;20078;-70
2022/07/30 05:17:36;;;;;;;5.13;1.63;;;20.90;59.90;;;;;;4939015;28;20419;-70
2022/07/30 05:20:05;;;;;;;2.05;1.60;;;20.80;60.10;;;;;;4934302;29;20031;-70
2022/07/30 05:22:44;;;;;;;1.92;1.52;;;20.90;60.10;;;;;;4937369;29;20519;-70
2022/07/30 05:25:10;;;;;;;1.95;1.35;;;20.90;59.30;;;;;;4941492;29;20031;-70
2022/07/30 05:27:36;;;;;;;3.80;1.88;;;20.90;59.20;;;;;;4943259;29;20606;-70
2022/07/30 05:30:02;;;;;;;2.90;1.50;;;20.90;59.20;;;;;;4943143;29;20119;-70
2022/07/30 05:32:33;;;;;;;2.75;1.45;;;21.00;59.80;;;;;;4939702;29;20039;-70
2022/07/30 05:35:00;;;;;;;3.30;1.85;;;21.00;59.30;;;;;;4940275;29;20081;-70
2022/07/30 05:37:27;;;;;;;2.75;1.50;;;21.00;59.70;;;;;;4936188;29;20031;-71
2022/07/30 05:39:54;;;;;;;2.90;1.30;;;21.10;59.40;;;;;;4940154;29;20081;-70
2022/07/30 05:42:38;;;;;;;4.57;1.48;;;21.10;59.80;;;;;;4936829;29;20090;-71
2022/07/30 05:45:04;;;;;;;3.33;1.50;;;21.10;60.20;;;;;;4941687;29;20050;-70
2022/07/30 05:47:30;;;;;;;1.60;1.45;;;21.10;60.10;;;;;;4941963;29;20031;-71
2022/07/30 05:49:56;;;;;;;2.97;1.50;;;21.20;60.30;;;;;;4940787;29;20108;-70
2022/07/30 05:52:22;;;;;;;3.72;1.40;;;21.20;60.60;;;;;;4940581;28;20053;-71
2022/07/30 05:54:51;;;;;;;3.72;1.45;;;21.20;61.00;;;;;;4937095;29;20033;-70
2022/07/30 05:57:35;;;;;;;4.25;1.58;;;21.20;61.30;;;;;;4937211;29;20051;-70
2022/07/30 06:00:06;;;;;;;1.83;1.52;;;21.20;61.40;;;;;;4932686;29;20539;-70
2022/07/30 06:02:50;;;;;;;2.92;1.45;;;21.20;61.70;;;;;;4933331;28;20031;-71
2022/07/30 06:05:24;;;;;;;2.03;1.55;;;21.30;61.30;;;;;;4941498;29;20315;-70
2022/07/30 06:07:51;;;;;;;1.83;1.42;;;21.30;60.10;;;;;;4941113;29;20794;-70
2022/07/30 06:10:20;;;;;;;3.05;1.65;;;21.30;60.40;;;;;;4937103;29;20103;-70
2022/07/30 06:12:46;;;;;;;4.18;1.60;;;21.30;60.70;;;;;;4940642;28;20031;-70
2022/07/30 06:15:13;;;;;;;2.40;1.38;;;21.30;60.80;;;;;;4933980;29;20032;-70
2022/07/30 06:17:44;;;;;;;3.55;1.77;;;21.40;60.70;;;;;;4934398;29;20031;-70
2022/07/30 06:20:17;;;;;;;3.22;1.63;;;21.40;60.40;;;;;;4932328;29;20075;-70
2022/07/30 06:23:03;;;;;;;3.47;1.70;;;21.40;60.60;;;;;;4925894;28;20043;-70
2022/07/30 06:25:57;;;;;;;3.80;1.58;;;21.50;60.80;;;;;;4941133;29;20039;-70
2022/07/30 06:28:23;;;;;;;1.52;1.33;;;21.60;60.80;;;;;;4940278;29;20047;-70
2022/07/30 06:30:49;;;;;;;2.33;1.67;;;21.60;60.40;;;;;;4943180;28;20744;-70
2022/07/30 06:33:15;;;;;;;2.10;1.60;;;21.70;60.20;;;;;;4934042;29;20043;-70
2022/07/30 06:35:41;;;;;;;1.90;1.27;;;21.90;59.60;;;;;;4934352;29;20177;-70
2022/07/30 06:38:09;;;;;;;5.20;1.50;;;22.00;59.40;;;;;;4931933;29;20042;-70
2022/07/30 06:40:47;;;;;;;2.25;1.45;;;22.00;60.20;;;;;;4933179;28;20062;-70
2022/07/30 06:43:18;;;;;;;1.88;1.20;;;22.20;59.30;;;;;;4940338;29;20068;-70
2022/07/30 06:45:59;;;;;;;4.35;1.83;;;22.30;57.70;;;;;;4936326;29;20035;-70
2022/07/30 06:48:33;;;;;;;5.22;1.80;;;22.30;57.20;;;;;;4940126;28;20670;-70
2022/07/30 06:51:01;;;;;;;2.15;1.40;;;22.30;57.60;;;;;;4942198;28;20046;-70
2022/07/30 06:53:28;;;;;;;3.30;1.65;;;22.40;57.70;;;;;;4943350;29;20031;-71
2022/07/30 06:56:16;;;;;;;6.78;1.75;;;22.60;57.50;;;;;;4937042;29;20046;-70
2022/07/30 06:58:53;;;;;;;6.90;1.77;;;22.70;57.20;;;;;;4941885;29;20558;-70
2022/07/30 07:01:24;;;;;;;6.78;1.42;;;22.90;57.00;;;;;;4943771;28;20138;-70
2022/07/30 07:03:51;;;;;;;2.05;1.40;;;23.00;56.50;;;;;;4941962;29;20148;-71
2022/07/30 07:06:17;;;;;;;3.72;1.60;;;23.10;56.00;;;;;;4955993;28;20849;-71
2022/07/30 07:08:43;;;;;;;4.90;1.50;;;23.20;55.50;;;;;;4941454;28;20042;-70
2022/07/30 07:11:12;;;;;;;4.40;1.70;;;23.20;55.30;;;;;;4941431;28;20770;-70
2022/07/30 07:13:52;;;;;;;4.93;1.70;;;23.20;55.70;;;;;;4933710;29;20385;-70
2022/07/30 07:16:25;;;;;;;6.93;1.40;;;23.20;55.90;;;;;;4943450;29;20042;-70
2022/07/30 07:18:54;;;;;;;3.60;1.90;;;23.20;56.10;;;;;;4935860;29;20086;-70
2022/07/30 07:21:21;;;;;;;7.65;1.90;;;23.20;56.40;;;;;;4942206;29;20036;-71
2022/07/30 07:23:49;;;;;;;4.00;1.45;;;23.30;56.40;;;;;;4941621;29;20031;-70
2022/07/30 07:26:35;;;;;;;3.08;1.52;;;23.30;56.00;;;;;;4917763;29;20043;-70
2022/07/30 07:29:02;;;;;;;3.58;1.60;;;23.40;55.20;;;;;;4941854;29;20407;-70
2022/07/30 07:31:28;;;;;;;2.20;1.27;;;23.50;55.10;;;;;;4943540;28;20031;-71
2022/07/30 07:33:54;;;;;;;4.82;1.75;;;23.60;55.00;;;;;;4935624;29;20042;-70
2022/07/30 07:36:20;;;;;;;3.33;1.40;;;23.70;54.80;;;;;;4936587;29;20035;-71
2022/07/30 07:38:46;;;;;;;3.70;1.67;;;23.80;54.20;;;;;;4943822;29;20074;-71
2022/07/30 07:41:12;;;;;;;2.38;1.30;;;23.90;54.40;;;;;;4944190;28;20131;-70
2022/07/30 07:43:39;;;;;;;2.97;1.48;;;24.00;54.20;;;;;;4942460;29;20041;-70
2022/07/30 07:46:07;;;;;;;4.18;1.40;;;24.10;52.10;;;;;;4943247;29;20031;-70
2022/07/30 07:48:34;;;;;;;3.05;1.33;;;24.10;52.50;;;;;;4938653;28;20031;-71
2022/07/30 07:51:19;;;;;;;4.43;1.60;;;24.10;52.90;;;;;;4937503;28;20098;-71
2022/07/30 07:53:46;;;;;;;3.95;1.30;;;24.20;52.60;;;;;;4942103;29;20027;-71
2022/07/30 07:56:12;;;;;;;2.83;1.63;;;24.30;52.80;;;;;;4941070;29;20415;-71
2022/07/30 07:58:40;;;;;;;4.00;1.77;;;24.30;52.20;;;;;;4942323;28;20031;-71
2022/07/30 08:01:06;;;;;;;3.35;1.70;;;24.40;52.80;;;;;;4942843;28;20039;-70
2022/07/30 08:03:52;;;;;;;5.30;1.58;;;24.40;52.40;;;;;;4938965;29;20411;-70
2022/07/30 08:06:38;;;;;;;3.75;1.60;;;24.50;52.70;;;;;;4939674;29;20877;-71
2022/07/30 08:09:35;;;;;;;3.78;1.30;;;24.60;52.10;;;;;;4938875;29;20046;-71
2022/07/30 08:12:16;;;;;;;4.18;1.33;;;24.70;52.30;;;;;;4936511;28;20139;-71
2022/07/30 08:15:01;;;;;;;2.75;1.50;;;24.80;52.00;;;;;;4934506;29;20042;-71
2022/07/30 08:17:50;;;;;;;5.03;1.60;;;24.80;51.50;;;;;;4942561;29;20038;-70
2022/07/30 08:20:28;;;;;;;2.92;1.40;;;24.70;51.40;;;;;;4941440;28;20051;-71
2022/07/30 08:22:54;;;;;;;3.67;1.50;;;24.70;51.30;;;;;;4943082;29;20118;-70
2022/07/30 08:25:21;;;;;;;4.22;1.70;;;24.70;51.30;;;;;;4942295;29;20122;-71
2022/07/30 08:27:48;;;;;;;3.13;1.60;;;24.80;52.00;;;;;;4942585;29;20117;-71
2022/07/30 08:30:14;;;;;;;1.83;1.25;;;24.80;52.50;;;;;;4934413;28;20094;-70
2022/07/30 08:32:39;;;;;;;4.60;1.40;;;24.80;51.70;;;;;;4934402;28;20046;-71
2022/07/30 08:35:06;;;;;;;4.53;1.73;;;24.90;51.30;;;;;;4934267;29;20043;-70
2022/07/30 08:37:32;;;;;;;4.55;1.58;;;24.90;50.30;;;;;;4941022;28;20031;-71
2022/07/30 08:39:58;;;;;;;4.85;1.30;;;24.90;50.70;;;;;;4941629;29;20876;-71
2022/07/30 08:42:26;;;;;;;2.22;1.50;;;25.00;52.00;;;;;;4937442;29;20397;-70
2022/07/30 08:44:53;;;;;;;4.70;1.42;;;25.00;51.80;;;;;;4941388;29;20062;-70
2022/07/30 08:47:24;;;;;;;2.85;1.55;;;25.10;50.90;;;;;;4941161;29;20114;-71
2022/07/30 08:50:13;;;;;;;2.60;1.20;;;25.20;50.50;;;;;;4934565;29;20071;-71
2022/07/30 08:53:00;;;;;;;4.03;1.80;;;25.30;51.20;;;;;;4936368;29;20109;-71
2022/07/30 08:55:27;;;;;;;5.85;1.88;;;25.30;50.10;;;;;;4942449;28;20527;-70
2022/07/30 08:57:53;;;;;;;2.45;1.70;;;25.30;50.50;;;;;;4940720;29;20023;-71
2022/07/30 09:00:20;;;;;;;6.93;1.40;;;25.30;50.20;;;;;;4937757;29;20130;-71
2022/07/30 09:02:48;;;;;;;8.73;1.50;;;25.40;50.00;;;;;;4934871;29;20050;-70
2022/07/30 09:05:14;;;;;;;7.03;1.50;;;25.40;50.20;;;;;;4936563;29;20023;-71
2022/07/30 09:07:40;;;;;;;3.72;1.27;;;25.50;50.00;;;;;;4934148;29;20034;-71
2022/07/30 09:10:11;;;;;;;5.00;1.40;;;25.60;49.80;;;;;;4948588;28;20027;-71
2022/07/30 09:12:39;;;;;;;6.85;2.08;;;25.70;50.10;;;;;;4941627;28;20749;-71
2022/07/30 09:15:14;;;;;;;6.78;1.30;;;25.70;50.00;;;;;;4940225;29;20035;-71
2022/07/30 09:17:51;;;;;;;5.53;1.52;;;25.70;49.20;;;;;;4956194;28;20951;-71
2022/07/30 09:20:19;;;;;;;4.15;1.50;;;25.70;49.70;;;;;;4937588;28;20050;-70
2022/07/30 09:22:49;;;;;;;4.97;1.42;;;25.80;49.90;;;;;;4942249;28;20729;-70
2022/07/30 09:25:44;;;;;;;2.53;1.50;;;25.80;49.40;;;;;;4934075;28;20086;-71
2022/07/30 09:28:36;;;;;;;3.53;1.48;;;26.00;49.50;;;;;;4920668;28;20552;-71
2022/07/30 09:31:15;;;;;;;5.55;1.52;;;26.00;49.60;;;;;;4937378;28;20142;-70
2022/07/30 09:33:59;;;;;;;4.07;1.60;;;26.10;49.30;;;;;;4939134;29;20114;-71
2022/07/30 09:36:43;;;;;;;4.35;1.20;;;26.20;49.20;;;;;;4941718;28;20037;-70
2022/07/30 09:39:29;;;;;;;3.33;1.50;;;26.30;48.20;;;;;;4937470;29;20044;-71
2022/07/30 09:42:24;;;;;;;4.13;1.75;;;26.40;48.60;;;;;;4937348;28;20463;-70
2022/07/30 09:45:04;;;;;;;2.92;1.30;;;26.50;47.40;;;;;;4938864;28;20817;-71
2022/07/30 09:47:34;;;;;;;4.72;1.42;;;26.50;47.80;;;;;;4941003;28;20057;-70
2022/07/30 09:50:09;;;;;;;4.30;1.27;;;26.50;48.90;;;;;;4945509;28;20159;-71
2022/07/30 09:52:37;;;;;;;3.00;1.35;;;26.50;47.50;;;;;;4952571;28;20038;-71
2022/07/30 09:55:05;;;;;;;4.85;1.25;;;26.60;47.90;;;;;;4942617;28;20062;-71
2022/07/30 09:57:32;;;;;;;2.90;1.40;;;26.70;47.90;;;;;;4943817;28;20030;-70
2022/07/30 10:00:21;;;;;;;5.63;1.88;;;26.80;47.00;;;;;;4937452;29;20035;-71
2022/07/30 10:02:55;;;;;;;4.28;1.33;;;26.80;47.60;;;;;;4935073;29;20043;-71
2022/07/30 10:05:52;;;;;;;1.92;1.40;;;26.90;47.30;;;;;;4936112;29;20571;-71
2022/07/30 10:08:18;;;;;;;2.75;1.45;;;26.90;47.20;;;;;;4940167;29;20114;-71
2022/07/30 10:10:46;;;;;;;2.40;1.27;;;26.90;47.40;;;;;;4941371;28;20028;-71
2022/07/30 10:13:13;;;;;;;3.38;1.55;;;27.00;47.20;;;;;;4938461;29;20027;-71
2022/07/30 10:15:39;;;;;;;3.28;1.30;;;27.20;47.10;;;;;;4938402;29;20027;-70
2022/07/30 10:18:06;;;;;;;4.80;1.30;;;27.20;46.80;;;;;;4937426;28;20194;-71
2022/07/30 10:20:50;;;;;;;3.97;1.20;;;27.30;46.80;;;;;;4937134;28;20373;-71
2022/07/30 10:23:36;;;;;;;2.47;1.35;;;27.50;46.60;;;;;;4945348;28;20050;-70
2022/07/30 10:26:21;;;;;;;2.60;1.33;;;27.60;46.40;;;;;;4937872;29;20086;-71
2022/07/30 10:29:06;;;;;;;4.22;1.10;;;27.70;46.30;;;;;;4942418;29;20054;-71
2022/07/30 10:31:32;;;;;;;2.08;1.10;;;27.90;45.40;;;;;;4947319;28;20028;-71
2022/07/30 10:33:58;;;;;;;2.72;1.40;;;27.90;45.40;;;;;;4943402;28;20058;-71
2022/07/30 10:36:25;;;;;;;3.47;1.50;;;27.90;45.50;;;;;;4941734;29;20131;-70
2022/07/30 10:38:53;;;;;;;2.55;1.30;;;27.80;45.90;;;;;;4940979;29;20035;-71
2022/07/30 10:41:40;;;;;;;2.78;1.00;;;27.80;45.50;;;;;;4938827;28;20660;-71
2022/07/30 10:44:24;;;;;;;2.38;1.20;;;27.90;44.80;;;;;;4935843;29;20090;-71
2022/07/30 10:46:56;;;;;;;1.95;1.10;;;27.90;45.10;;;;;;4940029;29;20027;-71
2022/07/30 10:49:22;;;;;;;2.42;0.98;;;28.00;45.00;;;;;;4944083;28;20039;-71
2022/07/30 10:51:49;;;;;;;1.60;0.90;;;28.10;44.60;;;;;;4943131;28;20035;-71
2022/07/30 10:54:33;;;;;;;3.08;1.40;;;28.10;43.50;;;;;;4940545;29;20523;-71
2022/07/30 10:57:14;;;;;;;3.22;1.02;;;28.10;43.30;;;;;;4938098;29;20044;-71
2022/07/30 11:00:03;;;;;;;2.40;0.90;;;28.00;44.20;;;;;;4936168;28;20110;-71
2022/07/30 11:02:30;;;;;;;3.20;0.90;;;27.90;44.50;;;;;;4935190;28;20058;-71
2022/07/30 11:05:17;;;;;;;4.30;0.93;;;27.90;43.30;;;;;;4936223;29;20624;-71
2022/07/30 11:07:47;;;;;;;2.25;1.05;;;27.80;43.30;;;;;;4938606;29;20099;-71
2022/07/30 11:10:38;;;;;;;1.52;0.82;;;27.80;43.30;;;;;;4940633;29;20440;-71
2022/07/30 11:13:08;;;;;;;6.40;1.13;;;27.90;44.50;;;;;;4940102;29;20081;-71
2022/07/30 11:15:55;;;;;;;5.55;0.90;;;28.00;44.10;;;;;;4941375;29;20484;-71
2022/07/30 11:18:21;;;;;;;0.60;0.60;;;28.00;42.80;;;;;;4938255;29;20551;-71
2022/07/30 11:21:15;;;;;;;1.27;0.70;;;28.00;43.20;;;;;;4937734;28;20403;-71
2022/07/30 11:23:41;;;;;;;3.15;1.10;;;28.20;43.70;;;;;;4938326;29;20035;-71
2022/07/30 11:26:08;;;;;;;2.28;0.77;;;28.40;43.60;;;;;;4943666;29;20027;-71
2022/07/30 11:28:37;;;;;;;6.53;0.90;;;28.60;42.70;;;;;;4943015;29;20062;-70
2022/07/30 11:31:23;;;;;;;1.30;1.00;;;28.60;41.40;;;;;;4943048;28;20905;-71
2022/07/30 11:33:49;;;;;;;2.25;1.10;;;28.60;42.20;;;;;;4936047;29;20043;-71
2022/07/30 11:36:14;;;;;;;3.58;1.00;;;28.50;42.90;;;;;;4937217;29;20042;-71
2022/07/30 11:38:58;;;;;;;1.35;1.10;;;28.50;43.30;;;;;;4938180;29;20027;-71
2022/07/30 11:41:25;;;;;;;1.63;0.90;;;28.50;43.00;;;;;;4936027;28;20119;-71
2022/07/30 11:44:28;;;;;;;2.75;0.95;;;28.60;42.00;;;;;;4940200;28;20023;-71
2022/07/30 11:46:55;;;;;;;2.40;0.95;;;28.60;41.50;;;;;;4938733;29;20039;-71
2022/07/30 11:49:21;;;;;;;1.45;0.93;;;28.50;41.60;;;;;;4939977;29;20052;-71
2022/07/30 11:51:48;;;;;;;4.15;0.93;;;28.50;42.00;;;;;;4941035;28;20035;-70
2022/07/30 11:54:14;;;;;;;1.67;1.02;;;28.50;41.70;;;;;;4938081;28;20050;-71
2022/07/30 11:56:51;;;;;;;2.95;1.15;;;28.50;42.00;;;;;;4939657;28;20078;-71
2022/07/30 11:59:17;;;;;;;2.33;1.67;;;28.60;42.00;;;;;;4936008;29;20043;-71
2022/07/30 12:01:47;;;;;;;3.00;1.00;;;28.60;42.00;;;;;;4937234;28;20111;-71
2022/07/30 12:04:13;;;;;;;2.85;1.10;;;28.60;40.60;;;;;;4943262;29;20046;-72
2022/07/30 12:06:46;;;;;;;3.30;1.00;;;28.50;40.30;;;;;;4942434;28;20019;-71
2022/07/30 12:09:21;;;;;;;4.50;1.33;;;28.60;40.00;;;;;;4941203;29;20038;-71
2022/07/30 12:11:46;;;;;;;7.13;1.05;;;28.60;40.80;;;;;;4939219;28;20066;-71
2022/07/30 12:14:12;;;;;;;1.30;1.00;;;28.60;41.20;;;;;;4938352;29;20039;-71
2022/07/30 12:16:41;;;;;;;1.05;0.80;;;28.50;41.20;;;;;;4938520;28;20058;-71
2022/07/30 12:19:07;;;;;;;2.60;0.90;;;28.40;40.80;;;;;;4933711;29;20039;-71
2022/07/30 12:21:33;;;;;;;1.25;0.95;;;28.40;40.70;;;;;;4940339;28;20023;-71
2022/07/30 12:24:01;;;;;;;3.53;0.90;;;28.50;40.90;;;;;;4943539;28;20062;-71
2022/07/30 12:26:29;;;;;;;2.75;1.02;;;28.70;40.90;;;;;;4941726;29;20369;-71
2022/07/30 12:29:00;;;;;;;1.55;1.10;;;28.70;40.60;;;;;;4940975;28;20101;-71
2022/07/30 12:31:26;;;;;;;2.17;1.13;;;28.80;40.00;;;;;;4945450;28;20051;-71
2022/07/30 12:33:55;;;;;;;3.40;1.08;;;28.80;39.50;;;;;;4937453;28;20042;-71
2022/07/30 12:36:38;;;;;;;3.38;1.20;;;28.80;40.50;;;;;;4936394;29;20067;-71
2022/07/30 12:39:05;;;;;;;2.13;1.40;;;28.90;39.80;;;;;;4932412;29;20118;-71
2022/07/30 12:41:46;;;;;;;2.28;1.02;;;28.90;39.40;;;;;;4942552;28;20030;-71
2022/07/30 12:44:33;;;;;;;3.72;1.20;;;28.80;38.80;;;;;;4940870;28;20042;-71
2022/07/30 12:46:58;;;;;;;4.20;1.10;;;28.80;40.30;;;;;;4934853;28;20054;-70
2022/07/30 12:49:29;;;;;;;1.85;1.05;;;28.70;40.00;;;;;;4938974;29;20032;-71
2022/07/30 12:51:55;;;;;;;5.50;1.23;;;28.70;40.30;;;;;;4937678;28;20053;-71
2022/07/30 12:54:21;;;;;;;2.05;1.02;;;28.80;40.00;;;;;;4936390;29;20036;-71
2022/07/30 12:57:02;;;;;;;1.27;0.98;;;28.90;39.80;;;;;;4941484;29;20077;-71
2022/07/30 12:59:31;;;;;;;2.50;1.33;;;28.90;39.90;;;;;;4939547;29;20046;-71
2022/07/30 13:01:59;;;;;;;2.50;1.20;;;29.00;39.60;;;;;;4938891;28;20027;-71
2022/07/30 13:04:25;;;;;;;1.38;0.90;;;28.90;39.00;;;;;;4942135;29;20034;-71
2022/07/30 13:07:05;;;;;;;4.63;1.00;;;28.70;39.50;;;;;;4940404;29;20035;-71
2022/07/30 13:09:31;;;;;;;1.70;1.10;;;28.50;39.60;;;;;;4939038;28;20034;-71